Time;durP1;ratioP1;P1;durP2;ratioP2;P2;SDS_P1;SDS_P2;PMS_P1;PMS_P2;Temp;Humidity;BMP_temperature;BMP_pressure;BME280_temperature;BME280_humidity;BME280_pressure;Samples;Min_cycle;Max_cycle;Signal;HPM_P1;HPM_P2
2021/06/24 00:01:02;;;;;;;;;22.50;20.75;;;;;23.88;49.14;101298.28;5017409;28;48928;-78
2021/06/24 00:03:29;;;;;;;;;18.25;15.75;;;;;23.85;48.98;101295.75;5021120;28;45389;-78
2021/06/24 00:05:54;;;;;;;;;18.00;14.75;;;;;23.85;48.84;101296.63;5011740;28;45495;-78
2021/06/24 00:08:20;;;;;;;;;19.25;17.25;;;;;23.87;49.54;101300.09;5013607;28;45692;-78
2021/06/24 00:10:46;;;;;;;;;18.00;16.00;;;;;23.85;49.20;101299.28;5021042;28;45421;-78
2021/06/24 00:13:11;;;;;;;;;23.75;20.00;;;;;23.86;49.11;101302.81;4989421;28;45457;-78
2021/06/24 00:15:37;;;;;;;;;18.50;15.25;;;;;23.83;49.10;101298.47;4996634;28;52423;-78
2021/06/24 00:18:02;;;;;;;;;22.25;18.75;;;;;23.84;49.37;101299.34;5019802;28;45399;-78
2021/06/24 00:20:27;;;;;;;;;18.25;17.00;;;;;23.84;49.20;101296.69;5008172;28;45288;-78
2021/06/24 00:22:53;;;;;;;;;16.50;15.75;;;;;23.81;49.57;101294.13;5017899;28;54899;-78
2021/06/24 00:25:18;;;;;;;;;19.00;15.75;;;;;23.84;49.28;101296.69;5019813;28;45491;-78
2021/06/24 00:27:44;;;;;;;;;21.50;17.50;;;;;23.84;49.29;101299.34;5019312;28;46339;-78
2021/06/24 00:30:11;;;;;;;;;19.00;18.25;;;;;23.82;49.63;101285.22;5036388;28;45395;-77
2021/06/24 00:32:37;;;;;;;;;20.75;16.50;;;;;23.78;49.32;101278.25;5019357;28;45402;-78
2021/06/24 00:35:02;;;;;;;;;15.50;13.50;;;;;23.81;49.69;101289.69;5029078;28;47916;-78
2021/06/24 00:37:28;;;;;;;;;18.25;18.25;;;;;23.80;49.63;101282.56;5008985;28;45310;-77
2021/06/24 00:39:54;;;;;;;;;19.25;17.00;;;;;23.79;49.29;101280.84;5019518;28;45490;-78
2021/06/24 00:42:19;;;;;;;;;22.00;18.00;;;;;23.79;49.55;101283.50;5012940;28;45318;-78
2021/06/24 00:44:45;;;;;;;;;17.75;15.00;;;;;23.79;49.12;101282.63;5019226;28;45438;-78
2021/06/24 00:47:10;;;;;;;;;21.50;17.25;;;;;23.78;49.20;101284.44;5019318;28;45429;-78
2021/06/24 00:49:35;;;;;;;;;17.50;15.00;;;;;23.77;49.41;101285.38;5035765;28;50660;-78
2021/06/24 00:52:01;;;;;;;;;18.00;17.00;;;;;23.78;49.54;101288.91;5035548;28;45380;-78
2021/06/24 00:54:26;;;;;;;;;17.50;15.50;;;;;23.78;49.43;101286.22;5002636;28;48178;-78
2021/06/24 00:56:52;;;;;;;;;15.50;14.00;;;;;23.78;49.49;101280.91;5020069;28;48891;-78
2021/06/24 00:59:17;;;;;;;;;15.00;15.00;;;;;23.76;49.69;101272.97;5002616;28;45342;-79
2021/06/24 01:01:43;;;;;;;;;17.25;14.50;;;;;23.77;49.67;101271.19;5018976;28;45511;-77
2021/06/24 01:04:08;;;;;;;;;16.75;13.50;;;;;23.79;49.23;101274.66;5020530;28;46278;-77
2021/06/24 01:06:34;;;;;;;;;18.75;16.75;;;;;23.78;49.63;101275.56;5035200;28;45519;-77
2021/06/24 01:08:59;;;;;;;;;15.25;15.25;;;;;23.75;49.54;101263.25;5019419;28;45317;-77
2021/06/24 01:11:24;;;;;;;;;15.50;13.25;;;;;23.77;49.79;101272.03;5015713;28;59140;-77
2021/06/24 01:13:50;;;;;;;;;16.25;13.50;;;;;23.77;49.13;101272.03;5013014;28;45979;-77
2021/06/24 01:16:16;;;;;;;;;15.25;15.25;;;;;23.77;49.54;101277.38;5035571;28;45344;-78
2021/06/24 01:18:41;;;;;;;;;17.75;16.75;;;;;23.74;49.69;101272.16;4992123;28;45370;-77
2021/06/24 01:21:07;;;;;;;;;16.50;14.75;;;;;23.73;49.46;101256.25;5016819;28;45342;-78
2021/06/24 01:23:43;;;;;;;;;21.50;18.25;;;;;23.75;49.91;101263.25;5018561;28;57455;-77
2021/06/24 01:26:08;;;;;;;;;16.75;16.25;;;;;23.73;49.43;101266.91;5001376;28;45330;-77
2021/06/24 01:28:34;;;;;;;;;16.50;15.75;;;;;23.73;50.07;101262.44;5035459;28;45490;-77
2021/06/24 01:30:59;;;;;;;;;17.25;16.25;;;;;23.71;49.47;101256.25;5015191;28;45459;-77
2021/06/24 01:33:25;;;;;;;;;14.00;14.00;;;;;23.72;49.61;101265.13;4998128;28;47062;-77
2021/06/24 01:35:56;;;;;;;;;16.50;14.00;;;;;23.74;49.94;101261.50;5001867;28;45385;-77
2021/06/24 01:38:22;;;;;;;;;15.50;15.00;;;;;23.72;49.61;101258.03;5018849;28;45302;-77
2021/06/24 01:40:47;;;;;;;;;14.25;14.25;;;;;23.68;49.65;101246.59;5014962;28;56012;-77
2021/06/24 01:43:13;;;;;;;;;14.25;14.25;;;;;23.67;49.84;101244.88;4996567;28;47185;-77
2021/06/24 01:45:49;;;;;;;;;18.25;16.00;;;;;23.59;49.97;101230.94;5016677;28;45654;-77
2021/06/24 01:48:14;;;;;;;;;18.00;13.50;;;;;23.72;49.53;101246.47;5005983;28;45838;-77
2021/06/24 01:50:40;;;;;;;;;14.50;12.25;;;;;23.69;49.50;101243.00;5007991;28;45462;-78
2021/06/24 01:53:05;;;;;;;;;13.75;13.75;;;;;23.67;49.87;101242.19;5001503;28;47395;-77
2021/06/24 01:55:35;;;;;;;;;16.00;15.00;;;;;23.68;49.71;101240.41;5018574;28;45367;-77
2021/06/24 01:58:01;;;;;;;;;15.75;13.00;;;;;23.68;49.30;101246.59;4988888;28;45298;-77
2021/06/24 02:00:27;;;;;;;;;14.50;12.50;;;;;23.66;49.75;101237.81;5008496;28;45326;-77
2021/06/24 02:02:52;;;;;;;;;14.75;14.50;;;;;23.66;49.58;101232.47;5035193;28;46129;-78
2021/06/24 02:05:18;;;;;;;;;12.75;12.25;;;;;23.66;49.91;101234.25;5034988;28;50591;-78
2021/06/24 02:07:43;;;;;;;;;11.00;11.00;;;;;23.66;49.62;101228.94;5019082;28;56966;-78
2021/06/24 02:10:11;;;;;;;;;14.00;13.25;;;;;23.67;49.26;101230.66;4997327;28;45797;-78
2021/06/24 02:12:37;;;;;;;;;16.75;14.50;;;;;23.63;49.80;101229.94;5017816;28;47446;-78
2021/06/24 02:15:07;;;;;;;;;13.50;11.50;;;;;23.63;49.65;101221.03;4995056;28;45520;-78
2021/06/24 02:17:33;;;;;;;;;14.00;12.00;;;;;23.61;49.83;101226.44;5015123;28;45281;-78
2021/06/24 02:19:58;;;;;;;;;12.00;12.00;;;;;23.57;49.85;101211.47;5034435;28;45439;-78
2021/06/24 02:22:23;;;;;;;;;13.25;13.25;;;;;23.63;49.94;101219.28;5017760;28;46033;-78
2021/06/24 02:24:49;;;;;;;;;14.00;14.00;;;;;23.62;49.67;101209.50;5017770;28;55633;-78
2021/06/24 02:27:14;;;;;;;;;13.25;13.25;;;;;23.62;49.78;101209.50;5049586;28;50098;-78
2021/06/24 02:29:40;;;;;;;;;12.50;12.00;;;;;23.62;49.71;101214.84;5014745;28;62841;-78
2021/06/24 02:32:05;;;;;;;;;14.00;12.75;;;;;23.60;49.69;101216.69;5047703;28;60282;-78
2021/06/24 02:34:32;;;;;;;;;16.25;13.75;;;;;23.63;49.91;101224.59;5011397;28;45435;-77
2021/06/24 02:36:58;;;;;;;;;14.00;13.25;;;;;23.63;49.73;101216.59;5001319;28;45499;-78
2021/06/24 02:39:23;;;;;;;;;10.75;10.75;;;;;23.59;49.68;101208.72;5010748;28;45563;-77
2021/06/24 02:41:48;;;;;;;;;11.50;11.50;;;;;23.63;49.84;101213.94;5004898;28;45439;-78
2021/06/24 02:44:14;;;;;;;;;13.50;12.00;;;;;23.62;49.58;101205.97;5013845;28;53564;-78
2021/06/24 02:46:39;;;;;;;;;11.00;11.00;;;;;23.62;49.93;101214.84;5036415;28;45425;-78
2021/06/24 02:49:05;;;;;;;;;14.75;13.75;;;;;23.60;49.97;101211.38;5022667;28;45400;-78
2021/06/24 02:51:30;;;;;;;;;11.75;11.75;;;;;23.62;49.85;101212.16;5020199;28;58014;-78
2021/06/24 02:53:56;;;;;;;;;14.50;14.50;;;;;23.61;49.39;101213.09;5022043;28;59114;-78
2021/06/24 02:56:22;;;;;;;;;15.25;14.00;;;;;23.61;49.72;101213.09;5022295;28;45301;-78
2021/06/24 02:58:48;;;;;;;;;14.25;13.25;;;;;23.58;49.54;101209.66;5022459;28;45304;-78
2021/06/24 03:01:14;;;;;;;;;12.50;10.50;;;;;23.61;50.09;101215.78;5036044;28;45678;-78
2021/06/24 03:03:39;;;;;;;;;13.75;12.75;;;;;23.61;49.38;101207.78;5034552;28;45435;-78
2021/06/24 03:06:05;;;;;;;;;14.00;11.50;;;;;23.60;50.07;101207.84;5018295;28;45923;-78
2021/06/24 03:08:30;;;;;;;;;15.75;11.25;;;;;23.60;49.49;101206.03;5012830;28;45440;-78
2021/06/24 03:10:56;;;;;;;;;14.00;11.25;;;;;23.60;49.52;101210.50;5020188;28;52679;-78
2021/06/24 03:13:21;;;;;;;;;13.75;12.50;;;;;23.60;49.45;101210.50;5012455;28;45469;-77
2021/06/24 03:15:46;;;;;;;;;12.75;11.00;;;;;23.56;49.61;101201.72;5008345;28;45819;-78
2021/06/24 03:18:12;;;;;;;;;12.75;11.00;;;;;23.55;49.54;101199.13;5018401;28;53236;-77
2021/06/24 03:20:37;;;;;;;;;13.00;12.25;;;;;23.57;49.93;101200.81;5014230;28;59495;-77
2021/06/24 03:23:02;;;;;;;;;10.25;10.25;;;;;23.58;49.77;101212.31;4987938;28;45930;-78
2021/06/24 03:25:28;;;;;;;;;11.00;10.25;;;;;23.58;49.67;101215.00;5003890;28;45433;-78
2021/06/24 03:27:54;;;;;;;;;12.50;11.75;;;;;23.55;49.69;101207.13;5018639;28;45508;-78
2021/06/24 03:30:20;;;;;;;;;14.75;13.75;;;;;23.56;49.69;101208.84;5017050;28;45537;-78
2021/06/24 03:32:45;;;;;;;;;10.00;8.75;;;;;23.55;49.79;101218.66;5020490;28;45379;-77
2021/06/24 03:35:11;;;;;;;;;11.75;10.75;;;;;23.53;49.52;101209.81;5037098;28;45453;-78
2021/06/24 03:37:36;;;;;;;;;12.75;12.00;;;;;23.51;49.97;101205.47;5037241;28;45476;-78
2021/06/24 03:40:04;;;;;;;;;11.25;11.25;;;;;23.54;49.63;101202.69;5001728;28;45382;-78
2021/06/24 03:42:30;;;;;;;;;14.00;12.00;;;;;23.53;50.00;101208.94;5006684;28;45467;-78
2021/06/24 03:44:55;;;;;;;;;12.50;11.50;;;;;23.50;49.87;101203.75;5036636;28;55078;-78
2021/06/24 03:47:21;;;;;;;;;11.25;11.00;;;;;23.42;49.81;101196.91;5020469;28;54753;-78
2021/06/24 03:49:46;;;;;;;;;11.75;9.50;;;;;23.51;49.88;101208.16;5017678;28;46930;-78
2021/06/24 03:52:11;;;;;;;;;11.00;10.00;;;;;23.50;49.87;101203.75;5010659;28;56299;-78
2021/06/24 03:54:37;;;;;;;;;13.25;13.25;;;;;23.51;49.42;101200.16;5003485;28;57715;-78
2021/06/24 03:57:02;;;;;;;;;10.00;9.00;;;;;23.49;49.97;101202.88;5036866;28;45526;-78
2021/06/24 03:59:28;;;;;;;;;12.00;12.00;;;;;23.51;50.07;101210.81;5019881;28;47321;-78
2021/06/24 04:01:53;;;;;;;;;11.25;9.00;;;;;23.50;49.57;101207.28;5019567;28;52688;-78
2021/06/24 04:04:19;;;;;;;;;11.75;10.00;;;;;23.47;49.98;101207.41;4987227;28;45748;-78
2021/06/24 04:06:44;;;;;;;;;11.25;10.25;;;;;23.45;49.61;101205.69;4999649;28;45686;-78
2021/06/24 04:09:10;;;;;;;;;11.50;10.25;;;;;23.48;49.87;101210.94;5019956;28;47240;-78
2021/06/24 04:11:35;;;;;;;;;11.25;9.50;;;;;23.48;49.33;101211.81;5037329;28;46043;-78
2021/06/24 04:14:00;;;;;;;;;8.75;8.25;;;;;23.51;49.47;101214.34;5015828;28;45329;-78
2021/06/24 04:16:26;;;;;;;;;13.75;13.00;;;;;23.50;49.81;101220.59;5019761;28;45467;-78
2021/06/24 04:18:51;;;;;;;;;10.50;10.50;;;;;23.47;50.14;101209.19;5020672;28;60198;-78
2021/06/24 04:21:16;;;;;;;;;9.75;8.00;;;;;23.49;49.53;101218.88;5020382;28;52704;-78
2021/06/24 04:23:42;;;;;;;;;13.25;9.75;;;;;23.39;49.50;101197.03;5020819;28;53282;-78
2021/06/24 04:26:07;;;;;;;;;9.75;8.75;;;;;23.49;49.67;101208.22;5035423;28;60291;-78
2021/06/24 04:28:33;;;;;;;;;11.00;11.00;;;;;23.47;49.98;101211.88;5048140;28;55618;-78
2021/06/24 04:30:58;;;;;;;;;10.25;8.75;;;;;23.49;49.83;101224.19;5026616;28;50651;-78
2021/06/24 04:33:23;;;;;;;;;9.25;9.25;;;;;23.48;49.31;101224.25;5033111;28;45986;-78
2021/06/24 04:35:49;;;;;;;;;11.25;10.00;;;;;23.47;49.76;101220.72;5013825;28;49840;-78
2021/06/24 04:38:14;;;;;;;;;9.25;9.25;;;;;23.44;49.47;101217.28;5011180;28;46096;-78
2021/06/24 04:40:40;;;;;;;;;11.00;10.00;;;;;23.48;49.48;101227.78;4988436;28;45239;-78
2021/06/24 04:43:05;;;;;;;;;10.25;8.50;;;;;23.42;49.33;101223.53;5002823;28;45337;-78
2021/06/24 04:45:31;;;;;;;;;12.25;10.75;;;;;23.46;49.49;101234.09;4996995;28;45544;-78
2021/06/24 04:47:56;;;;;;;;;10.75;9.25;;;;;23.45;49.62;101229.66;5011646;28;46069;-78
2021/06/24 04:50:22;;;;;;;;;12.25;11.25;;;;;23.44;49.45;101238.59;5011082;28;45566;-78
2021/06/24 04:52:47;;;;;;;;;9.25;8.50;;;;;23.46;49.86;101239.44;5012526;28;45451;-77
2021/06/24 04:55:13;;;;;;;;;9.00;9.00;;;;;23.39;49.53;101225.47;5007931;28;45499;-78
2021/06/24 04:57:47;;;;;;;;;10.25;9.25;;;;;23.45;49.69;101237.66;4991314;28;48823;-78
2021/06/24 05:00:14;;;;;;;;;12.50;8.50;;;;;23.38;49.66;101231.72;4995811;28;45777;-79
2021/06/24 05:02:40;;;;;;;;;9.75;8.50;;;;;23.39;49.43;101223.66;5006553;28;45414;-79
2021/06/24 05:05:07;;;;;;;;;10.50;9.25;;;;;23.40;49.14;101235.19;4969586;28;45582;-79
2021/06/24 05:07:35;;;;;;;;;13.00;10.00;;;;;23.41;49.93;101236.91;4997177;28;45293;-78
2021/06/24 05:10:00;;;;;;;;;11.00;10.00;;;;;23.39;49.75;101244.09;5006192;28;45497;-77
2021/06/24 05:12:26;;;;;;;;;10.25;9.75;;;;;23.36;49.67;101230.88;5035789;28;45841;-78
2021/06/24 05:14:52;;;;;;;;;13.75;10.00;;;;;23.34;49.82;101230.94;5002364;28;45341;-78
2021/06/24 05:17:26;;;;;;;;;11.75;10.25;;;;;23.39;50.26;101233.44;5000368;28;47038;-77
2021/06/24 05:19:52;;;;;;;;;9.25;9.25;;;;;23.39;49.73;101236.13;5018388;28;45379;-80
2021/06/24 05:22:19;;;;;;;;;9.50;9.50;;;;;23.41;50.69;101239.59;4985430;28;61001;-72
2021/06/24 05:24:45;;;;;;;;;13.00;11.75;;;;;23.41;50.89;101244.91;5002503;28;45647;-74
2021/06/24 05:27:10;;;;;;;;;11.00;10.00;;;;;23.42;51.14;101239.53;5012561;28;45284;-80
2021/06/24 05:29:36;;;;;;;;;9.00;9.00;;;;;23.46;51.44;101240.31;4999437;28;46846;-70
2021/06/24 05:32:01;;;;;;;;;13.75;13.25;;;;;23.48;51.70;101243.78;5002150;28;45266;-79
2021/06/24 05:34:27;;;;;;;;;13.50;13.25;;;;;23.45;52.28;101229.66;4997573;28;45754;-79
2021/06/24 05:36:52;;;;;;;;;16.25;14.00;;;;;23.51;52.05;101232.13;5001295;28;47148;-80
2021/06/24 05:39:17;;;;;;;;;12.00;9.50;;;;;23.42;50.29;101217.34;5003461;28;45289;-80
2021/06/24 05:41:43;;;;;;;;;11.25;11.25;;;;;23.29;49.65;101218.72;5000320;28;48737;-80
2021/06/24 05:44:08;;;;;;;;;13.00;10.75;;;;;23.15;49.97;101229.84;4985239;28;45513;-79
2021/06/24 05:46:34;;;;;;;;;10.25;10.25;;;;;23.05;49.88;101233.78;5019275;28;45435;-73
2021/06/24 05:49:08;;;;;;;;;11.50;10.25;;;;;22.94;51.04;101238.59;5015598;28;45352;-83
2021/06/24 05:51:34;;;;;;;;;13.50;12.75;;;;;22.87;51.28;101234.41;4989710;28;45442;-77
2021/06/24 05:53:59;;;;;;;;;10.75;9.00;;;;;22.78;50.14;101236.41;5023294;28;45296;-78
2021/06/24 05:56:24;;;;;;;;;13.25;10.25;;;;;22.69;49.89;101223.41;5017632;28;48893;-75
2021/06/24 05:58:50;;;;;;;;;12.25;10.50;;;;;22.66;50.47;101243.91;5008946;28;45388;-75
2021/06/24 06:01:17;;;;;;;;;12.00;11.00;;;;;22.54;49.66;101235.44;5001864;28;45380;-73
2021/06/24 06:03:42;;;;;;;;;13.50;10.00;;;;;22.50;49.73;101246.19;5011299;28;45549;-73
2021/06/24 06:06:07;;;;;;;;;10.00;10.00;;;;;22.46;49.31;101247.22;5008005;28;63156;-75
2021/06/24 06:08:45;;;;;;;;;10.75;10.00;;;;;22.40;49.40;101245.63;5005701;28;56837;-75
2021/06/24 06:11:10;;;;;;;;;10.25;8.25;;;;;22.33;50.01;101249.44;5005768;28;45252;-72
2021/06/24 06:13:36;;;;;;;;;9.75;9.00;;;;;22.29;48.85;101250.41;5001749;28;45230;-72
2021/06/24 06:16:01;;;;;;;;;10.00;9.00;;;;;22.16;50.37;101249.94;5002600;28;45926;-74
2021/06/24 06:18:27;;;;;;;;;16.00;11.75;;;;;22.26;50.08;101250.53;5016521;28;45258;-72
2021/06/24 06:20:54;;;;;;;;;12.00;11.00;;;;;22.28;49.43;101254.88;5027178;28;45372;-77
2021/06/24 06:23:22;;;;;;;;;14.25;13.00;;;;;22.20;49.37;101250.72;4998217;28;45357;-75
2021/06/24 06:25:48;;;;;;;;;15.25;13.75;;;;;22.21;48.95;101263.06;4999466;28;46035;-76
2021/06/24 06:28:14;;;;;;;;;9.75;9.75;;;;;22.15;49.62;101261.50;4998258;28;45346;-75
2021/06/24 06:30:40;;;;;;;;;11.00;9.25;;;;;22.11;49.08;101258.97;5000048;28;45296;-75
2021/06/24 06:33:05;;;;;;;;;12.50;10.75;;;;;22.06;49.43;101258.19;4998784;28;45191;-73
2021/06/24 06:35:31;;;;;;;;;11.00;11.00;;;;;22.08;48.82;101267.03;4998236;28;46956;-77
2021/06/24 06:37:56;;;;;;;;;11.25;10.25;;;;;22.06;49.30;101275.00;4998688;28;45458;-75
2021/06/24 06:40:22;;;;;;;;;15.25;10.50;;;;;22.06;49.50;101280.31;4998669;28;45400;-77
2021/06/24 06:42:47;;;;;;;;;11.25;11.25;;;;;22.05;49.39;101272.41;5006645;28;55457;-77
2021/06/24 06:45:13;;;;;;;;;11.50;10.75;;;;;21.97;49.10;101267.31;5002941;28;47123;-77
2021/06/24 06:47:39;;;;;;;;;15.50;10.25;;;;;21.97;49.10;101275.28;4999800;28;45465;-77
2021/06/24 06:50:04;;;;;;;;;11.75;10.00;;;;;21.92;48.64;101271.91;4998471;28;45269;-74
2021/06/24 06:52:30;;;;;;;;;12.25;11.50;;;;;21.94;48.65;101272.72;5007482;28;45658;-77
2021/06/24 06:54:55;;;;;;;;;10.50;10.25;;;;;21.91;49.39;101273.69;5000105;28;45456;-78
2021/06/24 06:57:23;;;;;;;;;10.75;10.00;;;;;21.87;49.12;101273.81;5017822;28;57937;-75
2021/06/24 06:59:49;;;;;;;;;13.75;10.75;;;;;21.91;49.82;101276.34;5015560;28;60724;-75
2021/06/24 07:02:14;;;;;;;;;11.25;11.25;;;;;21.95;49.21;101274.47;4999581;28;45402;-75
2021/06/24 07:04:40;;;;;;;;;13.75;11.25;;;;;21.96;48.63;101271.75;4999233;28;48767;-75
2021/06/24 07:07:05;;;;;;;;;11.00;11.00;;;;;21.93;48.86;101277.16;4999748;28;45183;-76
2021/06/24 07:09:31;;;;;;;;;13.25;10.25;;;;;21.94;49.20;101278.91;4999698;28;45721;-76
2021/06/24 07:11:56;;;;;;;;;12.00;12.00;;;;;21.92;48.81;101275.44;4998992;28;45416;-76
2021/06/24 07:14:22;;;;;;;;;11.50;11.25;;;;;21.97;48.55;101284.13;5024742;28;56869;-79
2021/06/24 07:16:48;;;;;;;;;12.25;10.50;;;;;21.92;48.22;101279.88;4981725;28;45208;-75
2021/06/24 07:19:13;;;;;;;;;11.75;9.50;;;;;21.95;48.65;101285.09;4981429;28;45366;-75
2021/06/24 07:21:39;;;;;;;;;11.00;11.00;;;;;21.94;48.43;101289.53;4997664;28;53039;-77
2021/06/24 07:24:05;;;;;;;;;10.00;10.00;;;;;21.94;48.90;101284.22;4999011;28;45409;-77
2021/06/24 07:26:31;;;;;;;;;11.50;10.00;;;;;21.95;48.53;101283.31;5002304;28;45403;-77
2021/06/24 07:28:56;;;;;;;;;12.25;10.75;;;;;21.90;48.25;101271.09;5001910;28;54835;-76
2021/06/24 07:31:21;;;;;;;;;13.25;11.75;;;;;21.92;47.92;101271.91;5001539;28;57924;-77
2021/06/24 07:33:47;;;;;;;;;12.00;9.00;;;;;21.90;48.80;101277.28;5005409;28;45415;-77
2021/06/24 07:36:12;;;;;;;;;11.50;11.00;;;;;21.90;47.80;101271.94;5038320;28;45326;-77
2021/06/24 07:38:38;;;;;;;;;9.25;9.25;;;;;21.89;48.04;101288.81;5021280;28;56137;-77
2021/06/24 07:41:03;;;;;;;;;17.75;13.00;;;;;21.85;48.78;101273.00;5038477;28;45429;-77
2021/06/24 07:43:29;;;;;;;;;11.00;11.00;;;;;21.82;48.44;101276.63;5021086;28;45691;-77
2021/06/24 07:45:54;;;;;;;;;12.00;12.00;;;;;21.86;48.30;101278.25;4994623;28;52275;-77
2021/06/24 07:48:20;;;;;;;;;12.25;12.00;;;;;21.84;47.97;101279.22;5003016;28;45496;-77
2021/06/24 07:50:45;;;;;;;;;11.50;10.25;;;;;21.83;48.13;101281.00;4996668;28;45279;-77
2021/06/24 07:53:11;;;;;;;;;13.75;13.25;;;;;21.82;48.18;101281.94;5004209;28;47362;-77
2021/06/24 07:55:38;;;;;;;;;11.75;10.50;;;;;21.79;47.91;101281.13;5021262;28;45281;-79
2021/06/24 07:58:04;;;;;;;;;17.75;13.00;;;;;21.76;48.14;101276.78;5020882;28;45454;-76
2021/06/24 08:00:30;;;;;;;;;11.00;10.00;;;;;21.79;48.09;101279.34;5020618;28;45327;-76
2021/06/24 08:02:56;;;;;;;;;12.25;11.00;;;;;21.79;47.92;101287.31;5037121;28;46011;-77
2021/06/24 08:05:21;;;;;;;;;10.00;10.00;;;;;21.79;48.45;101283.78;5021941;28;45390;-77
2021/06/24 08:07:48;;;;;;;;;10.75;10.50;;;;;21.79;48.19;101287.31;5037240;28;45481;-76
2021/06/24 08:10:14;;;;;;;;;11.00;10.25;;;;;21.81;48.21;101276.66;5037044;28;45569;-77
2021/06/24 08:12:41;;;;;;;;;14.00;13.00;;;;;21.78;47.50;101276.72;5021329;28;45262;-77
2021/06/24 08:15:08;;;;;;;;;14.25;11.25;;;;;21.76;47.70;101274.13;5021060;28;45194;-78
2021/06/24 08:17:33;;;;;;;;;11.50;11.50;;;;;21.80;47.96;101277.56;5020675;28;45350;-77
2021/06/24 08:19:59;;;;;;;;;12.50;11.50;;;;;21.82;47.89;101281.94;5003905;28;45459;-77
2021/06/24 08:22:24;;;;;;;;;12.00;10.25;;;;;21.79;47.41;101273.16;5003713;28;47352;-76
2021/06/24 08:24:50;;;;;;;;;13.00;11.00;;;;;21.83;48.11;101285.47;5020603;28;45367;-77
2021/06/24 08:27:15;;;;;;;;;15.00;13.75;;;;;21.78;47.86;101276.72;5020000;28;45374;-77
2021/06/24 08:29:41;;;;;;;;;12.75;11.50;;;;;21.83;47.59;101283.66;5020109;28;45478;-77
2021/06/24 08:32:06;;;;;;;;;14.00;13.50;;;;;21.84;47.34;101287.19;5020085;28;47063;-76
2021/06/24 08:34:33;;;;;;;;;11.25;11.25;;;;;21.85;47.46;101295.13;5036784;28;45502;-75
2021/06/24 08:36:59;;;;;;;;;11.00;10.50;;;;;21.85;47.82;101289.81;5020247;28;45466;-76
2021/06/24 08:39:24;;;;;;;;;13.75;11.25;;;;;21.84;47.32;101287.19;5020244;28;45633;-76
2021/06/24 08:41:51;;;;;;;;;11.00;9.00;;;;;21.84;47.71;101288.06;5020437;28;50366;-75
2021/06/24 08:44:17;;;;;;;;;11.25;10.25;;;;;21.87;47.42;101293.28;4991362;28;45306;-77
2021/06/24 08:46:43;;;;;;;;;10.75;10.75;;;;;21.90;47.66;101295.00;5003289;28;45346;-75
2021/06/24 08:49:08;;;;;;;;;13.50;12.50;;;;;21.86;47.64;101288.88;5020215;28;45342;-76
2021/06/24 08:51:33;;;;;;;;;13.00;12.00;;;;;21.93;47.57;101292.25;5035589;28;45261;-76
2021/06/24 08:54:00;;;;;;;;;13.25;11.25;;;;;21.92;47.55;101296.69;5001192;28;51110;-76
2021/06/24 08:56:25;;;;;;;;;12.75;11.75;;;;;21.93;47.46;101293.13;5000012;28;45428;-76
2021/06/24 08:58:52;;;;;;;;;8.75;8.75;;;;;21.96;47.51;101298.31;5000399;28;53472;-77
2021/06/24 09:01:18;;;;;;;;;15.25;10.25;;;;;21.97;47.31;101299.19;5002809;28;47042;-76
2021/06/24 09:03:45;;;;;;;;;10.00;10.00;;;;;21.93;47.53;101294.91;5000167;28;45370;-77
2021/06/24 09:06:11;;;;;;;;;11.75;11.00;;;;;21.96;47.23;101297.47;4999771;28;45297;-76
2021/06/24 09:08:52;;;;;;;;;10.25;9.25;;;;;21.94;47.09;101292.19;5016167;28;45388;-76
2021/06/24 09:11:24;;;;;;;;;10.75;10.50;;;;;21.92;47.03;101294.03;4983860;28;46814;-76
2021/06/24 09:13:58;;;;;;;;;10.25;10.25;;;;;21.92;47.82;101302.00;4983202;28;45363;-75
2021/06/24 09:16:28;;;;;;;;;11.25;10.00;;;;;21.93;47.73;101303.75;4999608;28;45428;-76
2021/06/24 09:19:13;;;;;;;;;9.25;9.25;;;;;21.97;47.50;101305.38;4999288;28;45370;-79
2021/06/24 09:21:39;;;;;;;;;16.00;14.00;;;;;21.98;47.89;101309.81;4999384;28;48268;-81
2021/06/24 09:24:04;;;;;;;;;11.75;10.75;;;;;21.97;47.25;101305.38;5001280;28;45440;-79
2021/06/24 09:26:32;;;;;;;;;12.25;12.25;;;;;21.98;47.65;101307.16;4983370;28;45521;-78
2021/06/24 09:28:58;;;;;;;;;13.25;12.00;;;;;21.99;48.16;101308.91;5015305;28;45651;-76
2021/06/24 09:31:31;;;;;;;;;11.00;9.25;;;;;22.02;47.69;101313.25;5000443;28;45297;-77
2021/06/24 09:34:08;;;;;;;;;11.50;10.50;;;;;22.01;46.70;101312.38;5003518;28;45167;-76
2021/06/24 09:36:43;;;;;;;;;16.25;12.75;;;;;21.98;47.53;101304.50;5016505;28;45277;-75
2021/06/24 09:39:28;;;;;;;;;14.00;11.75;;;;;22.00;47.89;101309.75;5016497;28;45554;-76
2021/06/24 09:41:57;;;;;;;;;14.25;12.50;;;;;22.04;47.64;101310.53;5018611;28;45453;-75
2021/06/24 09:44:24;;;;;;;;;14.50;10.25;;;;;22.05;47.59;101312.28;5026141;28;45476;-75
2021/06/24 09:46:49;;;;;;;;;17.00;12.50;;;;;22.05;47.40;101301.63;5021663;28;45436;-75
2021/06/24 09:49:26;;;;;;;;;14.25;12.75;;;;;22.04;46.79;101314.06;5035553;28;45440;-75
2021/06/24 09:51:52;;;;;;;;;14.50;12.50;;;;;22.02;46.83;101311.44;5015321;28;47464;-76
2021/06/24 09:54:18;;;;;;;;;12.75;11.50;;;;;22.04;47.56;101311.41;4982982;28;45330;-76
2021/06/24 09:56:45;;;;;;;;;10.50;10.00;;;;;22.05;46.97;101314.94;4999083;28;45327;-76
2021/06/24 09:59:11;;;;;;;;;12.25;9.50;;;;;22.05;46.93;101320.25;5015260;28;45516;-75
2021/06/24 10:01:42;;;;;;;;;11.50;11.50;;;;;21.97;46.76;101304.50;5015332;28;46287;-76
2021/06/24 10:04:37;;;;;;;;;12.75;10.00;;;;;22.04;46.89;101319.38;4999231;28;45294;-76
2021/06/24 10:07:03;;;;;;;;;14.75;11.25;;;;;22.02;47.04;101322.09;4994574;28;45361;-76
2021/06/24 10:09:29;;;;;;;;;13.75;12.25;;;;;22.05;47.05;101315.78;4998538;28;45632;-76
2021/06/24 10:11:58;;;;;;;;;13.50;11.25;;;;;;;;4982343;28;46708;-76
2021/06/24 10:14:23;;;;;;;;;11.00;11.00;;;;;;;;4998701;28;45494;-74
2021/06/24 10:16:59;;;;;;;;;10.75;9.25;;;;;22.12;47.58;101329.81;4999978;28;49588;-75
2021/06/24 10:19:31;;;;;;;;;13.00;11.75;;;;;22.17;46.95;101328.78;4998585;28;45560;-75
2021/06/24 10:22:03;;;;;;;;;13.50;12.00;;;;;22.20;46.93;101327.81;5015226;28;45388;-74
2021/06/24 10:24:38;;;;;;;;;15.00;13.75;;;;;22.20;47.21;101331.34;5015038;28;45278;-75
2021/06/24 10:27:06;;;;;;;;;14.50;13.00;;;;;22.23;46.89;101333.03;4982195;28;45197;-75
2021/06/24 10:29:46;;;;;;;;;10.25;10.25;;;;;22.24;46.78;101332.09;5014866;28;45322;-75
2021/06/24 10:32:32;;;;;;;;;10.25;10.25;;;;;22.22;45.88;101320.66;4998073;28;46300;-75
2021/06/24 10:34:58;;;;;;;;;13.75;12.50;;;;;22.21;46.25;101321.56;5014036;28;45383;-75
2021/06/24 10:37:24;;;;;;;;;15.50;12.75;;;;;22.20;46.29;101327.81;4999806;28;45273;-75
2021/06/24 10:39:58;;;;;;;;;12.25;10.75;;;;;22.19;46.21;101326.94;4998776;28;45413;-76
2021/06/24 10:42:28;;;;;;;;;13.75;13.50;;;;;22.19;46.04;101326.94;5003381;28;46110;-78
2021/06/24 10:44:55;;;;;;;;;15.00;12.00;;;;;22.18;46.81;101322.53;5002443;28;45370;-77
2021/06/24 10:47:34;;;;;;;;;16.50;11.50;;;;;22.21;46.28;101330.41;4998759;28;45350;-76
2021/06/24 10:50:29;;;;;;;;;14.00;11.50;;;;;22.21;46.71;101327.75;4998141;28;45716;-78
2021/06/24 10:52:55;;;;;;;;;14.25;11.50;;;;;22.22;46.20;101318.88;4999562;28;45371;-77
2021/06/24 10:55:40;;;;;;;;;12.75;11.25;;;;;22.27;46.74;101324.94;4981859;28;45440;-77
2021/06/24 10:58:18;;;;;;;;;15.50;12.00;;;;;22.30;45.84;101315.97;4998274;28;45455;-79
2021/06/24 11:00:44;;;;;;;;;13.25;12.75;;;;;22.28;46.16;101324.00;5004813;28;45365;-78
2021/06/24 11:03:11;;;;;;;;;17.75;12.25;;;;;22.27;45.65;101316.94;5018033;28;45455;-76
2021/06/24 11:05:40;;;;;;;;;13.75;13.75;;;;;22.28;46.21;101316.03;5001531;28;45176;-76
2021/06/24 11:08:12;;;;;;;;;14.25;13.75;;;;;22.28;45.87;101316.03;5003065;28;45308;-75
2021/06/24 11:10:53;;;;;;;;;13.50;12.25;;;;;22.29;45.99;101312.44;5018302;28;45372;-76